createdAt,value
2022-12-17T00:02:05.764Z,-2.30
2022-12-17T00:04:51.632Z,-4.90
2022-12-17T00:07:38.496Z,-4.90
2022-12-17T00:10:26.401Z,-2.90
2022-12-17T00:13:12.842Z,-4.90
2022-12-17T00:15:58.813Z,-5.00
2022-12-17T00:18:44.731Z,-4.90
2022-12-17T00:21:31.697Z,-4.80
2022-12-17T00:24:17.731Z,-3.40
2022-12-17T00:27:03.536Z,-5.00
2022-12-17T00:29:49.588Z,-4.90
2022-12-17T00:32:35.624Z,-4.90
2022-12-17T00:35:22.087Z,-5.30
2022-12-17T00:38:07.933Z,-5.10
2022-12-17T00:40:54.105Z,-5.20
2022-12-17T00:43:40.306Z,-5.00
2022-12-17T00:46:26.396Z,-5.10
2022-12-17T00:49:12.416Z,-5.00
2022-12-17T00:51:58.416Z,-5.10
2022-12-17T00:54:44.484Z,-3.70
2022-12-17T00:57:31.070Z,-5.10
2022-12-17T01:00:16.981Z,-4.20
2022-12-17T01:03:03.077Z,-3.50
2022-12-17T01:05:49.117Z,-5.10
2022-12-17T01:08:35.190Z,-3.00
2022-12-17T01:11:25.098Z,-5.10
2022-12-17T01:14:12.126Z,-2.40
2022-12-17T01:16:57.970Z,-5.10
2022-12-17T01:19:58.417Z,-5.00
2022-12-17T01:22:44.515Z,-5.00
2022-12-17T01:25:30.506Z,-5.30
2022-12-17T01:28:17.704Z,-3.20
2022-12-17T01:31:03.595Z,-5.00
2022-12-17T01:33:51.530Z,-5.00
2022-12-17T01:36:38.757Z,-5.00
2022-12-17T01:39:38.006Z,-5.00
2022-12-17T01:45:13.948Z,-5.00
2022-12-17T01:48:14.196Z,-5.10
2022-12-17T01:51:06.126Z,-5.00
2022-12-17T01:54:02.250Z,-5.00
2022-12-17T01:56:48.247Z,-3.20
2022-12-17T01:59:38.500Z,-5.00
2022-12-17T02:02:25.665Z,-5.00
2022-12-17T02:05:11.875Z,-5.00
2022-12-17T02:08:13.237Z,-4.90
2022-12-17T02:11:28.616Z,-4.90
2022-12-17T02:14:30.657Z,-4.90
2022-12-17T02:17:21.311Z,-4.90
2022-12-17T02:20:20.257Z,-4.80
2022-12-17T02:23:22.510Z,-4.90
2022-12-17T02:26:16.110Z,-4.80
2022-12-17T02:29:07.301Z,-4.80
2022-12-17T02:31:56.519Z,-4.80
2022-12-17T02:34:43.650Z,-4.80
2022-12-17T02:37:30.202Z,-5.40
2022-12-17T02:40:30.272Z,-2.50
2022-12-17T02:43:17.017Z,-4.70
2022-12-17T02:46:05.953Z,-4.90
2022-12-17T02:48:53.235Z,-3.70
2022-12-17T02:51:41.496Z,-4.00
2022-12-17T02:54:30.781Z,-4.50
2022-12-17T02:57:27.353Z,-4.50
2022-12-17T03:00:15.097Z,-2.70
2022-12-17T03:03:03.568Z,-4.70
2022-12-17T03:05:52.310Z,-2.90
2022-12-17T03:11:24.626Z,-4.70
2022-12-17T03:14:10.637Z,-4.50
2022-12-17T03:16:57.528Z,-4.70
2022-12-17T03:19:43.954Z,-5.20
2022-12-17T03:22:39.258Z,-3.00
2022-12-17T03:25:26.014Z,-4.50
2022-12-17T03:28:12.385Z,-4.40
2022-12-17T03:30:58.873Z,-4.70
2022-12-17T03:33:44.755Z,-4.60
2022-12-17T03:36:30.758Z,-4.60
2022-12-17T03:39:16.770Z,-4.60
2022-12-17T03:42:13.368Z,-2.00
2022-12-17T03:44:59.653Z,-2.30
2022-12-17T03:47:45.731Z,-4.70
2022-12-17T03:50:31.648Z,-4.70
2022-12-17T03:53:21.404Z,-2.50
2022-12-17T03:56:07.416Z,-4.90
2022-12-17T03:58:53.409Z,-4.90
2022-12-17T04:01:39.474Z,-4.70
2022-12-17T04:04:25.664Z,-2.90
2022-12-17T04:07:11.730Z,-4.60
2022-12-17T04:09:57.589Z,-4.60
2022-12-17T04:12:44.696Z,-2.60
2022-12-17T04:15:30.671Z,-2.80
2022-12-17T04:18:16.931Z,-2.40
2022-12-17T04:21:02.907Z,-4.60
2022-12-17T04:23:48.916Z,-4.50
2022-12-17T04:26:35.091Z,-4.50
2022-12-17T04:29:21.280Z,-1.80
2022-12-17T04:32:07.232Z,-4.70
2022-12-17T04:37:39.498Z,-4.40
2022-12-17T04:40:26.915Z,-4.80
2022-12-17T04:43:12.950Z,-4.50
2022-12-17T04:45:59.591Z,-2.80
2022-12-17T04:48:45.608Z,-4.50
2022-12-17T04:51:31.500Z,-4.60
2022-12-17T04:54:17.481Z,-4.60
2022-12-17T04:57:03.897Z,-4.50
2022-12-17T04:59:49.942Z,-4.60
2022-12-17T05:02:40.916Z,-4.90
2022-12-17T05:05:29.311Z,-4.50
2022-12-17T05:08:16.151Z,-4.30
2022-12-17T05:11:02.771Z,-3.20
2022-12-17T05:13:51.366Z,-4.60
2022-12-17T05:19:23.573Z,-4.40
2022-12-17T05:22:09.608Z,-4.40
2022-12-17T05:24:56.147Z,-4.40
2022-12-17T05:30:29.198Z,-4.30
2022-12-17T05:33:19.889Z,-4.30
2022-12-17T05:36:10.505Z,-4.40
2022-12-17T05:38:56.830Z,-1.40
2022-12-17T05:41:42.810Z,-4.40
2022-12-17T05:44:28.862Z,-4.40
2022-12-17T05:47:14.627Z,-3.20
2022-12-17T05:50:00.461Z,-4.30
2022-12-17T05:52:46.375Z,-2.50
2022-12-17T05:55:32.477Z,-2.70
2022-12-17T05:58:28.109Z,-4.40
2022-12-17T06:01:18.851Z,-2.40
2022-12-17T06:04:05.478Z,-2.20
2022-12-17T06:06:54.390Z,-3.20
2022-12-17T06:09:40.317Z,-4.30
2022-12-17T06:12:27.648Z,-3.90
2022-12-17T06:15:16.851Z,-4.30
2022-12-17T06:18:16.421Z,-3.50
2022-12-17T06:21:08.435Z,-3.40
2022-12-17T06:23:54.442Z,-2.00
2022-12-17T06:26:40.431Z,-1.90
2022-12-17T06:29:29.867Z,-2.30
2022-12-17T06:32:18.100Z,-4.00
2022-12-17T06:35:04.240Z,-1.30
2022-12-17T06:37:50.506Z,-4.60
2022-12-17T06:40:36.650Z,-2.90
2022-12-17T06:43:22.972Z,-3.90
2022-12-17T06:46:11.572Z,-1.80
2022-12-17T06:48:57.682Z,-2.60
2022-12-17T06:51:46.835Z,-2.60
2022-12-17T06:54:32.842Z,-2.30
2022-12-17T06:57:18.938Z,-1.80
2022-12-17T07:00:04.950Z,-3.70
2022-12-17T07:02:51.057Z,-1.60
2022-12-17T07:05:37.192Z,-2.10
2022-12-17T07:08:23.373Z,-1.70
2022-12-17T07:11:09.275Z,-3.40
2022-12-17T07:13:56.576Z,-2.30
2022-12-17T07:16:42.748Z,-2.20
2022-12-17T07:19:28.927Z,-2.00
2022-12-17T07:25:01.927Z,-3.60
2022-12-17T07:27:55.542Z,-1.50
2022-12-17T07:30:44.243Z,-3.50
2022-12-17T07:33:30.461Z,-1.80
2022-12-17T07:36:16.562Z,-2.60
2022-12-17T07:39:02.615Z,-1.40
2022-12-17T07:41:48.955Z,-1.50
2022-12-17T07:44:35.085Z,-2.10
2022-12-17T07:47:21.134Z,-4.10
2022-12-17T07:50:07.570Z,-4.00
2022-12-17T07:52:53.732Z,-4.40
2022-12-17T07:55:39.737Z,-1.90
2022-12-17T07:58:29.633Z,-1.40
2022-12-17T08:01:21.163Z,-1.30
2022-12-17T08:04:07.593Z,-3.90
2022-12-17T08:06:59.779Z,-1.50
2022-12-17T08:09:55.257Z,-4.00
2022-12-17T08:12:51.873Z,-3.30
2022-12-17T08:15:38.157Z,-1.10
2022-12-17T08:18:26.858Z,-1.90
2022-12-17T08:21:17.698Z,-3.20
2022-12-17T08:24:06.074Z,-3.90
2022-12-17T08:26:56.002Z,-3.40
2022-12-17T08:29:42.050Z,-1.70
2022-12-17T08:32:28.490Z,-3.60
2022-12-17T08:35:16.153Z,-1.60
2022-12-17T08:38:02.490Z,-1.40
2022-12-17T08:40:48.612Z,-5.10
2022-12-17T08:43:38.468Z,-0.40
2022-12-17T08:46:24.782Z,-1.20
2022-12-17T08:49:11.161Z,-1.40
2022-12-17T08:51:57.026Z,-2.90
2022-12-17T08:54:43.362Z,-1.10
2022-12-17T08:57:32.364Z,-2.90
2022-12-17T09:00:21.170Z,0.00
2022-12-17T09:03:07.195Z,-0.90
2022-12-17T09:06:13.285Z,-2.60
2022-12-17T09:09:00.776Z,-0.70
2022-12-17T09:11:49.658Z,-3.40
2022-12-17T09:14:35.976Z,-0.70
2022-12-17T09:17:22.081Z,-2.70
2022-12-17T09:20:12.227Z,-4.20
2022-12-17T09:22:58.228Z,-0.50
2022-12-17T09:25:44.372Z,-2.20
2022-12-17T09:28:30.351Z,-0.30
2022-12-17T09:31:20.168Z,-2.90
2022-12-17T09:34:08.526Z,-0.70
2022-12-17T09:36:56.747Z,-0.10
2022-12-17T09:39:46.710Z,-2.00
2022-12-17T09:42:53.447Z,-0.90
2022-12-17T09:46:10.928Z,-1.90
2022-12-17T09:49:08.079Z,-1.70
2022-12-17T09:51:55.812Z,-1.60
2022-12-17T09:55:01.703Z,-0.20
2022-12-17T09:57:56.089Z,-0.40
2022-12-17T10:00:51.696Z,0.70
2022-12-17T10:03:54.308Z,-1.10
2022-12-17T10:06:47.154Z,-0.80
2022-12-17T10:09:36.897Z,-0.90
2022-12-17T10:12:38.355Z,-1.00
2022-12-17T10:15:26.241Z,-0.60
2022-12-17T10:18:12.594Z,-0.50
2022-12-17T10:21:03.404Z,1.80
2022-12-17T10:23:55.527Z,-0.10
2022-12-17T10:26:49.878Z,1.50
2022-12-17T10:29:48.062Z,-0.10
2022-12-17T10:32:37.293Z,1.80
2022-12-17T10:35:53.535Z,2.50
2022-12-17T10:38:49.315Z,2.40
2022-12-17T10:41:54.551Z,0.70
2022-12-17T10:44:42.055Z,1.90
2022-12-17T10:47:30.815Z,2.30
2022-12-17T10:50:55.258Z,3.00
2022-12-17T10:53:48.651Z,2.70
2022-12-17T10:56:45.458Z,2.50
2022-12-17T10:59:48.070Z,3.10
2022-12-17T11:02:46.033Z,0.90
2022-12-17T11:05:47.215Z,1.00
2022-12-17T11:08:35.074Z,2.50
2022-12-17T11:11:28.440Z,3.20
2022-12-17T11:14:18.497Z,3.30
2022-12-17T11:17:11.703Z,3.50
2022-12-17T11:20:16.192Z,3.60
2022-12-17T11:23:18.431Z,1.60
2022-12-17T11:26:14.572Z,-0.30
2022-12-17T11:29:00.613Z,1.80
2022-12-17T11:32:08.425Z,1.50
2022-12-17T11:35:18.199Z,2.00
2022-12-17T11:38:48.089Z,1.90
2022-12-17T11:41:43.169Z,1.80
2022-12-17T11:44:58.669Z,1.70
2022-12-17T11:48:10.823Z,1.60
2022-12-17T11:51:24.970Z,1.50
2022-12-17T11:54:21.244Z,1.50
2022-12-17T11:57:16.288Z,3.40
2022-12-17T12:00:13.245Z,1.40
2022-12-17T12:02:59.342Z,2.50
2022-12-17T12:05:52.109Z,1.50
2022-12-17T12:09:08.910Z,1.60
2022-12-17T12:12:09.053Z,1.70
2022-12-17T12:15:33.487Z,1.70
2022-12-17T12:18:28.919Z,1.80
2022-12-17T12:21:57.084Z,1.80
2022-12-17T12:25:02.281Z,2.10
2022-12-17T12:27:52.739Z,1.90
2022-12-17T12:30:54.589Z,2.00
2022-12-17T12:34:10.583Z,1.90
2022-12-17T12:36:58.074Z,1.90
2022-12-17T12:40:04.409Z,2.80
2022-12-17T12:43:04.207Z,1.90
2022-12-17T12:46:10.867Z,3.30
2022-12-17T12:49:28.421Z,2.00
2022-12-17T12:52:16.969Z,2.00
2022-12-17T12:55:07.095Z,2.20
2022-12-17T12:58:23.185Z,2.10
2022-12-17T13:01:09.194Z,2.10
2022-12-17T13:04:07.855Z,2.00
2022-12-17T13:06:54.262Z,1.80
2022-12-17T13:09:35.251Z,2.10
2022-12-17T13:12:02.923Z,2.00
2022-12-17T13:14:42.736Z,2.60
2022-12-17T13:17:18.837Z,4.30
2022-12-17T13:19:58.629Z,4.10
2022-12-17T13:22:33.736Z,3.20
2022-12-17T13:25:18.153Z,4.00
2022-12-17T13:27:48.175Z,3.30
2022-12-17T13:30:18.445Z,3.70
2022-12-17T13:33:27.072Z,2.30
2022-12-17T13:36:31.987Z,2.10
2022-12-17T13:39:40.557Z,2.10
2022-12-17T13:42:40.615Z,2.20
2022-12-17T13:45:19.797Z,1.40
2022-12-17T13:47:57.694Z,2.30
2022-12-17T13:50:34.775Z,2.30
2022-12-17T13:53:11.830Z,2.30
2022-12-17T13:55:49.179Z,2.30
2022-12-17T13:58:33.495Z,3.10
2022-12-17T14:01:09.665Z,2.80
2022-12-17T14:06:38.384Z,4.70
2022-12-17T14:09:06.390Z,4.80
2022-12-17T14:11:55.739Z,4.10
2022-12-17T14:17:02.981Z,2.90
2022-12-17T14:19:13.011Z,2.50
2022-12-17T14:47:08.171Z,3.80
2022-12-17T14:55:28.171Z,1.10
2022-12-17T15:08:15.508Z,3.80
2022-12-17T15:18:40.783Z,1.40
2022-12-17T15:21:11.515Z,4.30
2022-12-17T15:23:45.364Z,2.50
2022-12-17T15:26:16.153Z,4.00
2022-12-17T15:28:44.928Z,4.20
2022-12-17T15:31:20.624Z,2.30
2022-12-17T15:33:51.249Z,3.70
2022-12-17T15:36:24.512Z,4.00
2022-12-17T15:38:52.560Z,4.40
2022-12-17T15:41:41.795Z,2.40
2022-12-17T15:44:09.673Z,5.10
2022-12-17T15:46:37.358Z,2.10
2022-12-17T15:49:14.638Z,3.40
2022-12-17T15:52:06.782Z,4.00
2022-12-17T15:54:45.417Z,1.40
2022-12-17T15:57:18.373Z,1.70
2022-12-17T15:59:53.877Z,1.60
2022-12-17T16:02:22.661Z,3.50
2022-12-17T16:04:50.589Z,2.90
2022-12-17T16:07:32.138Z,3.20
2022-12-17T16:10:09.650Z,1.40
2022-12-17T16:12:38.095Z,1.60
2022-12-17T16:15:08.895Z,3.90
2022-12-17T16:17:37.443Z,1.10
2022-12-17T16:20:10.092Z,3.50
2022-12-17T16:22:38.145Z,1.10
2022-12-17T16:25:06.154Z,3.40
2022-12-17T16:27:35.564Z,0.80
2022-12-17T16:30:12.114Z,0.60
2022-12-17T16:32:57.283Z,0.50
2022-12-17T16:35:31.355Z,-0.60
2022-12-17T16:37:58.873Z,0.70
2022-12-17T16:51:29.866Z,-1.70
2022-12-17T18:02:09.419Z,-0.10
2022-12-17T18:30:22.760Z,2.60
2022-12-17T18:33:01.412Z,1.60
2022-12-17T18:35:31.946Z,0.50
2022-12-17T18:38:09.730Z,-1.50
2022-12-17T18:40:37.985Z,-0.50
2022-12-17T18:43:24.279Z,-0.90
2022-12-17T18:46:00.472Z,0.50
2022-12-17T18:48:37.422Z,1.10
2022-12-17T18:51:06.261Z,1.00
2022-12-17T18:53:37.663Z,-0.50
2022-12-17T18:56:16.648Z,1.00
2022-12-17T18:58:55.678Z,-0.70
2022-12-17T19:01:35.541Z,1.30
2022-12-17T19:04:11.636Z,2.20
2022-12-17T19:06:43.515Z,-0.60
2022-12-17T19:09:22.838Z,1.20
2022-12-17T19:11:52.073Z,1.40
2022-12-17T19:14:22.151Z,-0.60
2022-12-17T19:16:51.762Z,-0.40
2022-12-17T19:19:19.824Z,-0.20
2022-12-17T19:21:48.173Z,-0.20
2022-12-17T19:24:17.878Z,-0.30
2022-12-17T19:26:46.465Z,1.00
2022-12-17T19:29:15.704Z,1.50
2022-12-17T19:31:43.893Z,0.20
2022-12-17T19:34:14.416Z,0.50
2022-12-17T19:36:42.973Z,1.90
2022-12-17T19:39:19.916Z,0.40
2022-12-17T19:41:50.351Z,-0.30
2022-12-17T19:44:20.128Z,0.10
2022-12-17T19:46:48.466Z,2.10
2022-12-17T19:49:17.010Z,1.90
2022-12-17T19:51:45.353Z,2.00
2022-12-17T19:54:15.333Z,-0.40
2022-12-17T19:56:45.425Z,1.50
2022-12-17T19:59:13.746Z,2.40
2022-12-17T20:01:45.474Z,1.80
2022-12-17T20:04:14.858Z,-0.40
2022-12-17T20:06:52.272Z,0.20
2022-12-17T20:09:19.976Z,2.20
2022-12-17T20:12:01.968Z,2.30
2022-12-17T20:14:34.363Z,0.90
2022-12-17T20:17:05.599Z,2.80
2022-12-17T20:19:37.308Z,1.50
2022-12-17T20:22:06.428Z,1.50
2022-12-17T20:24:34.322Z,0.70
2022-12-17T20:27:02.258Z,1.90
2022-12-17T20:29:36.014Z,0.20
2022-12-17T20:32:10.639Z,-1.50
2022-12-17T20:34:45.322Z,-0.10
2022-12-17T20:37:16.774Z,2.20
2022-12-17T20:39:50.081Z,1.60
2022-12-17T20:42:28.491Z,1.80
2022-12-17T20:44:58.553Z,1.70
2022-12-17T20:47:32.167Z,-0.40
2022-12-17T20:49:59.772Z,1.20
2022-12-17T20:52:27.499Z,2.80
2022-12-17T20:54:58.057Z,0.60
2022-12-17T20:57:28.842Z,2.20
2022-12-17T20:59:56.577Z,1.30
2022-12-17T21:02:34.528Z,2.40
2022-12-17T21:05:03.590Z,2.30
2022-12-17T21:07:34.529Z,2.00
2022-12-17T21:10:04.759Z,2.50
2022-12-17T21:12:52.466Z,1.90
2022-12-17T21:15:23.486Z,2.20
2022-12-17T21:17:51.143Z,1.90
2022-12-17T21:20:21.947Z,2.10
2022-12-17T21:22:49.669Z,1.40
2022-12-17T21:25:17.414Z,2.30
2022-12-17T21:27:45.342Z,0.10
2022-12-17T21:30:15.684Z,-1.00
2022-12-17T21:32:43.390Z,-0.10
2022-12-17T21:35:12.173Z,0.00
2022-12-17T21:37:39.839Z,-0.20
2022-12-17T21:40:09.250Z,1.80
2022-12-17T21:42:55.348Z,-0.30
2022-12-17T21:45:23.125Z,-1.90
2022-12-17T21:50:19.232Z,-0.40
2022-12-17T21:52:47.028Z,1.80
2022-12-17T21:55:14.704Z,-1.00
2022-12-17T21:57:42.374Z,-0.50
2022-12-17T22:00:10.782Z,-1.30
2022-12-17T22:02:38.641Z,-0.70
2022-12-17T22:05:06.540Z,1.50
2022-12-17T22:07:41.348Z,-0.80
2022-12-17T22:10:29.219Z,1.70
2022-12-17T22:13:39.995Z,0.70
2022-12-17T22:16:07.988Z,-0.80
2022-12-17T22:18:35.750Z,-1.00
2022-12-17T22:21:03.644Z,1.20
2022-12-17T22:25:59.537Z,-1.00
2022-12-17T22:28:30.055Z,2.30
2022-12-17T22:31:23.678Z,-0.80
2022-12-17T22:34:41.183Z,-0.60
2022-12-17T22:38:19.119Z,1.20
2022-12-17T22:42:59.310Z,1.20
2022-12-17T22:44:42.338Z,0.60
2022-12-17T22:45:32.022Z,1.10
2022-12-17T22:47:59.852Z,1.30
2022-12-17T22:50:29.175Z,0.40
2022-12-17T22:53:05.847Z,1.00
2022-12-17T22:55:34.628Z,-1.00
2022-12-17T22:58:02.764Z,1.40
2022-12-17T23:00:33.042Z,-0.70
2022-12-17T23:03:01.363Z,0.90
2022-12-17T23:05:30.100Z,1.30
2022-12-17T23:07:58.022Z,-0.90
2022-12-17T23:10:26.837Z,-1.20
2022-12-17T23:12:55.316Z,-1.00
2022-12-17T23:15:36.579Z,-0.60
2022-12-17T23:18:07.082Z,-0.80
2022-12-17T23:20:34.964Z,1.30
2022-12-17T23:23:02.746Z,-0.40
2022-12-17T23:25:31.092Z,0.80
2022-12-17T23:27:58.696Z,-0.90
2022-12-17T23:30:26.777Z,1.40
2022-12-17T23:32:54.391Z,-0.90
2022-12-17T23:37:49.807Z,-0.60
2022-12-17T23:40:17.371Z,-0.80
2022-12-17T23:42:45.349Z,-0.60
2022-12-17T23:45:13.147Z,1.20
2022-12-17T23:47:41.330Z,-2.10
2022-12-17T23:50:09.615Z,-0.80
2022-12-17T23:52:37.510Z,-0.60
2022-12-17T23:55:05.750Z,1.10
2022-12-17T23:57:35.750Z,-0.70
